sensor_id;sensor_type;location;lat;lon;timestamp;temperature;humidity
5775;DHT22;2913;51.120;6.772;2023-11-18T00:01:35;5.10;99.90
5775;DHT22;2913;51.120;6.772;2023-11-18T00:04:02;4.90;99.90
5775;DHT22;2913;51.120;6.772;2023-11-18T00:06:27;4.90;99.90
5775;DHT22;2913;51.120;6.772;2023-11-18T00:08:55;4.90;99.90
5775;DHT22;2913;51.120;6.772;2023-11-18T00:11:21;4.90;99.90
5775;DHT22;2913;51.120;6.772;2023-11-18T00:13:46;4.80;99.90
5775;DHT22;2913;51.120;6.772;2023-11-18T00:16:12;5.00;99.90
5775;DHT22;2913;51.120;6.772;2023-11-18T00:18:41;5.10;99.90
5775;DHT22;2913;51.120;6.772;2023-11-18T00:21:07;5.20;99.90
5775;DHT22;2913;51.120;6.772;2023-11-18T00:23:36;4.90;99.90
5775;DHT22;2913;51.120;6.772;2023-11-18T00:26:02;4.80;99.90
5775;DHT22;2913;51.120;6.772;2023-11-18T00:28:27;4.80;99.90
5775;DHT22;2913;51.120;6.772;2023-11-18T00:30:55;4.80;99.90
5775;DHT22;2913;51.120;6.772;2023-11-18T00:33:21;4.80;99.90
5775;DHT22;2913;51.120;6.772;2023-11-18T00:35:46;4.80;99.90
5775;DHT22;2913;51.120;6.772;2023-11-18T00:38:12;4.80;99.90
5775;DHT22;2913;51.120;6.772;2023-11-18T00:40:37;4.80;99.90
5775;DHT22;2913;51.120;6.772;2023-11-18T00:43:03;4.90;99.90
5775;DHT22;2913;51.120;6.772;2023-11-18T00:45:29;5.00;99.90
5775;DHT22;2913;51.120;6.772;2023-11-18T00:47:55;5.00;99.90
5775;DHT22;2913;51.120;6.772;2023-11-18T00:50:20;5.00;99.90
5775;DHT22;2913;51.120;6.772;2023-11-18T00:52:46;5.00;99.90
5775;DHT22;2913;51.120;6.772;2023-11-18T00:55:13;5.00;99.90
5775;DHT22;2913;51.120;6.772;2023-11-18T00:57:39;5.00;99.90
5775;DHT22;2913;51.120;6.772;2023-11-18T01:00:10;5.00;99.90
5775;DHT22;2913;51.120;6.772;2023-11-18T01:02:42;5.00;99.90
5775;DHT22;2913;51.120;6.772;2023-11-18T01:05:11;5.00;99.90
5775;DHT22;2913;51.120;6.772;2023-11-18T01:07:39;5.00;99.90
5775;DHT22;2913;51.120;6.772;2023-11-18T01:10:06;4.90;99.90
5775;DHT22;2913;51.120;6.772;2023-11-18T01:12:33;4.90;99.90
5775;DHT22;2913;51.120;6.772;2023-11-18T01:14:59;4.80;99.90
5775;DHT22;2913;51.120;6.772;2023-11-18T01:17:24;4.90;99.90
5775;DHT22;2913;51.120;6.772;2023-11-18T01:19:50;4.90;99.90
5775;DHT22;2913;51.120;6.772;2023-11-18T01:22:20;5.00;99.90
5775;DHT22;2913;51.120;6.772;2023-11-18T01:24:46;5.10;99.90
5775;DHT22;2913;51.120;6.772;2023-11-18T01:27:12;5.10;99.90
5775;DHT22;2913;51.120;6.772;2023-11-18T01:29:38;5.10;99.90
5775;DHT22;2913;51.120;6.772;2023-11-18T01:32:06;5.10;99.90
5775;DHT22;2913;51.120;6.772;2023-11-18T01:34:36;5.10;99.90
5775;DHT22;2913;51.120;6.772;2023-11-18T01:37:04;5.10;99.90
5775;DHT22;2913;51.120;6.772;2023-11-18T01:39:36;5.10;99.90
5775;DHT22;2913;51.120;6.772;2023-11-18T01:42:04;5.10;99.90
5775;DHT22;2913;51.120;6.772;2023-11-18T01:44:30;5.10;99.90
5775;DHT22;2913;51.120;6.772;2023-11-18T01:46:59;5.10;99.90
5775;DHT22;2913;51.120;6.772;2023-11-18T01:49:26;5.20;99.90
5775;DHT22;2913;51.120;6.772;2023-11-18T01:51:55;5.20;99.90
5775;DHT22;2913;51.120;6.772;2023-11-18T01:54:24;5.30;99.90
5775;DHT22;2913;51.120;6.772;2023-11-18T01:56:53;5.30;99.90
5775;DHT22;2913;51.120;6.772;2023-11-18T01:59:18;5.30;99.90
5775;DHT22;2913;51.120;6.772;2023-11-18T02:01:49;5.30;99.90
5775;DHT22;2913;51.120;6.772;2023-11-18T02:04:18;5.30;99.90
5775;DHT22;2913;51.120;6.772;2023-11-18T02:06:45;5.40;99.90
5775;DHT22;2913;51.120;6.772;2023-11-18T02:09:14;5.40;99.90
5775;DHT22;2913;51.120;6.772;2023-11-18T02:11:45;5.30;99.90
5775;DHT22;2913;51.120;6.772;2023-11-18T02:14:18;5.30;99.90
5775;DHT22;2913;51.120;6.772;2023-11-18T02:16:48;5.30;99.90
5775;DHT22;2913;51.120;6.772;2023-11-18T02:19:24;5.30;99.90
5775;DHT22;2913;51.120;6.772;2023-11-18T02:21:52;5.30;99.90
5775;DHT22;2913;51.120;6.772;2023-11-18T02:24:32;5.30;99.90
5775;DHT22;2913;51.120;6.772;2023-11-18T02:27:05;5.30;99.90
5775;DHT22;2913;51.120;6.772;2023-11-18T02:29:43;5.30;99.90
5775;DHT22;2913;51.120;6.772;2023-11-18T02:35:30;5.20;99.90
5775;DHT22;2913;51.120;6.772;2023-11-18T02:38:00;5.20;99.90
5775;DHT22;2913;51.120;6.772;2023-11-18T02:40:36;5.10;99.90
5775;DHT22;2913;51.120;6.772;2023-11-18T02:43:06;5.20;99.90
5775;DHT22;2913;51.120;6.772;2023-11-18T02:45:35;5.10;99.90
5775;DHT22;2913;51.120;6.772;2023-11-18T02:48:05;5.20;99.90
5775;DHT22;2913;51.120;6.772;2023-11-18T02:50:32;5.00;99.90
5775;DHT22;2913;51.120;6.772;2023-11-18T02:52:57;5.10;99.90
5775;DHT22;2913;51.120;6.772;2023-11-18T02:55:24;5.10;99.90
5775;DHT22;2913;51.120;6.772;2023-11-18T02:57:52;5.10;99.90
5775;DHT22;2913;51.120;6.772;2023-11-18T03:00:18;5.20;99.90
5775;DHT22;2913;51.120;6.772;2023-11-18T03:02:52;5.20;99.90
5775;DHT22;2913;51.120;6.772;2023-11-18T03:05:18;5.20;99.90
5775;DHT22;2913;51.120;6.772;2023-11-18T03:07:46;5.30;99.90
5775;DHT22;2913;51.120;6.772;2023-11-18T03:10:18;5.30;99.90
5775;DHT22;2913;51.120;6.772;2023-11-18T03:12:51;5.40;99.90
5775;DHT22;2913;51.120;6.772;2023-11-18T03:15:20;5.20;99.90
5775;DHT22;2913;51.120;6.772;2023-11-18T03:17:47;5.30;99.90
5775;DHT22;2913;51.120;6.772;2023-11-18T03:20:17;5.30;99.90
5775;DHT22;2913;51.120;6.772;2023-11-18T03:22:49;5.30;99.90
5775;DHT22;2913;51.120;6.772;2023-11-18T03:25:18;5.30;99.90
5775;DHT22;2913;51.120;6.772;2023-11-18T03:27:47;5.20;99.90
5775;DHT22;2913;51.120;6.772;2023-11-18T03:30:13;5.20;99.90
5775;DHT22;2913;51.120;6.772;2023-11-18T03:32:40;5.20;99.90
5775;DHT22;2913;51.120;6.772;2023-11-18T03:35:07;5.10;99.90
5775;DHT22;2913;51.120;6.772;2023-11-18T03:37:38;5.10;99.90
5775;DHT22;2913;51.120;6.772;2023-11-18T03:40:06;5.10;99.90
5775;DHT22;2913;51.120;6.772;2023-11-18T03:42:32;5.10;99.90
5775;DHT22;2913;51.120;6.772;2023-11-18T03:44:57;5.10;99.90
5775;DHT22;2913;51.120;6.772;2023-11-18T03:47:23;5.10;99.90
5775;DHT22;2913;51.120;6.772;2023-11-18T03:49:50;5.20;99.90
5775;DHT22;2913;51.120;6.772;2023-11-18T03:52:20;5.10;99.90
5775;DHT22;2913;51.120;6.772;2023-11-18T03:54:45;5.20;99.90
5775;DHT22;2913;51.120;6.772;2023-11-18T03:57:13;5.20;99.90
5775;DHT22;2913;51.120;6.772;2023-11-18T03:59:41;5.20;99.90
5775;DHT22;2913;51.120;6.772;2023-11-18T04:02:07;5.20;99.90
5775;DHT22;2913;51.120;6.772;2023-11-18T04:04:35;5.20;99.90
5775;DHT22;2913;51.120;6.772;2023-11-18T04:07:01;5.20;99.90
5775;DHT22;2913;51.120;6.772;2023-11-18T04:09:27;5.20;99.90
5775;DHT22;2913;51.120;6.772;2023-11-18T04:11:52;5.10;99.90
5775;DHT22;2913;51.120;6.772;2023-11-18T04:14:18;5.20;99.90
5775;DHT22;2913;51.120;6.772;2023-11-18T04:16:48;5.10;99.90
5775;DHT22;2913;51.120;6.772;2023-11-18T04:19:14;5.00;99.90
5775;DHT22;2913;51.120;6.772;2023-11-18T04:21:40;4.90;99.90
5775;DHT22;2913;51.120;6.772;2023-11-18T04:24:08;4.90;99.90
5775;DHT22;2913;51.120;6.772;2023-11-18T04:26:37;4.90;99.90
5775;DHT22;2913;51.120;6.772;2023-11-18T04:29:02;4.90;99.90
5775;DHT22;2913;51.120;6.772;2023-11-18T04:31:30;4.90;99.90
5775;DHT22;2913;51.120;6.772;2023-11-18T04:36:24;4.90;99.90
5775;DHT22;2913;51.120;6.772;2023-11-18T04:38:54;4.90;99.90
5775;DHT22;2913;51.120;6.772;2023-11-18T04:41:19;4.90;99.90
5775;DHT22;2913;51.120;6.772;2023-11-18T04:43:47;4.90;99.90
5775;DHT22;2913;51.120;6.772;2023-11-18T04:46:13;5.00;99.90
5775;DHT22;2913;51.120;6.772;2023-11-18T04:48:38;5.20;99.90
5775;DHT22;2913;51.120;6.772;2023-11-18T04:51:05;5.00;99.90
5775;DHT22;2913;51.120;6.772;2023-11-18T04:53:31;4.90;99.90
5775;DHT22;2913;51.120;6.772;2023-11-18T04:55:57;4.90;99.90
5775;DHT22;2913;51.120;6.772;2023-11-18T04:58:23;4.90;99.90
5775;DHT22;2913;51.120;6.772;2023-11-18T05:00:49;4.90;99.90
5775;DHT22;2913;51.120;6.772;2023-11-18T05:03:16;4.90;99.90
5775;DHT22;2913;51.120;6.772;2023-11-18T05:05:41;5.00;99.90
5775;DHT22;2913;51.120;6.772;2023-11-18T05:08:10;5.00;99.90
5775;DHT22;2913;51.120;6.772;2023-11-18T05:10:47;5.00;99.90
5775;DHT22;2913;51.120;6.772;2023-11-18T05:13:12;5.00;99.90
5775;DHT22;2913;51.120;6.772;2023-11-18T05:15:40;5.10;99.90
5775;DHT22;2913;51.120;6.772;2023-11-18T05:18:08;5.00;99.90
5775;DHT22;2913;51.120;6.772;2023-11-18T05:20:39;5.10;99.90
5775;DHT22;2913;51.120;6.772;2023-11-18T05:23:04;5.00;99.90
5775;DHT22;2913;51.120;6.772;2023-11-18T05:25:44;5.10;99.90
5775;DHT22;2913;51.120;6.772;2023-11-18T05:28:09;5.20;99.90
5775;DHT22;2913;51.120;6.772;2023-11-18T05:30:41;5.10;99.90
5775;DHT22;2913;51.120;6.772;2023-11-18T05:33:08;5.10;99.90
5775;DHT22;2913;51.120;6.772;2023-11-18T05:35:38;5.20;99.90
5775;DHT22;2913;51.120;6.772;2023-11-18T05:38:08;5.10;99.90
5775;DHT22;2913;51.120;6.772;2023-11-18T05:40:36;5.10;99.90
5775;DHT22;2913;51.120;6.772;2023-11-18T05:43:07;5.10;99.90
5775;DHT22;2913;51.120;6.772;2023-11-18T05:45:41;5.30;99.90
5775;DHT22;2913;51.120;6.772;2023-11-18T05:48:26;5.10;99.90
5775;DHT22;2913;51.120;6.772;2023-11-18T05:50:52;5.10;99.90
5775;DHT22;2913;51.120;6.772;2023-11-18T05:53:17;5.10;99.90
5775;DHT22;2913;51.120;6.772;2023-11-18T05:55:45;5.10;99.90
5775;DHT22;2913;51.120;6.772;2023-11-18T05:58:11;5.10;99.90
5775;DHT22;2913;51.120;6.772;2023-11-18T06:00:38;5.00;99.90
5775;DHT22;2913;51.120;6.772;2023-11-18T06:03:07;5.10;99.90
5775;DHT22;2913;51.120;6.772;2023-11-18T06:05:35;5.10;99.90
5775;DHT22;2913;51.120;6.772;2023-11-18T06:08:00;5.10;99.90
5775;DHT22;2913;51.120;6.772;2023-11-18T06:10:29;5.20;99.90
5775;DHT22;2913;51.120;6.772;2023-11-18T06:12:56;5.10;99.90
5775;DHT22;2913;51.120;6.772;2023-11-18T06:15:24;5.10;99.90
5775;DHT22;2913;51.120;6.772;2023-11-18T06:17:52;5.10;99.90
5775;DHT22;2913;51.120;6.772;2023-11-18T06:20:17;5.10;99.90
5775;DHT22;2913;51.120;6.772;2023-11-18T06:22:45;5.10;99.90
5775;DHT22;2913;51.120;6.772;2023-11-18T06:25:13;5.20;99.90
5775;DHT22;2913;51.120;6.772;2023-11-18T06:27:39;5.20;99.90
5775;DHT22;2913;51.120;6.772;2023-11-18T06:30:05;5.20;99.90
5775;DHT22;2913;51.120;6.772;2023-11-18T06:32:33;5.20;99.90
5775;DHT22;2913;51.120;6.772;2023-11-18T06:35:01;5.20;99.90
5775;DHT22;2913;51.120;6.772;2023-11-18T06:37:34;5.20;99.90
5775;DHT22;2913;51.120;6.772;2023-11-18T06:40:03;5.20;99.90
5775;DHT22;2913;51.120;6.772;2023-11-18T06:42:32;5.20;99.90
5775;DHT22;2913;51.120;6.772;2023-11-18T06:44:57;5.30;99.90
5775;DHT22;2913;51.120;6.772;2023-11-18T06:47:27;5.30;99.90
5775;DHT22;2913;51.120;6.772;2023-11-18T06:49:55;5.30;99.90
5775;DHT22;2913;51.120;6.772;2023-11-18T06:52:21;5.30;99.90
5775;DHT22;2913;51.120;6.772;2023-11-18T06:54:47;5.30;99.90
5775;DHT22;2913;51.120;6.772;2023-11-18T06:57:15;5.30;99.90
5775;DHT22;2913;51.120;6.772;2023-11-18T06:59:41;5.30;99.90
5775;DHT22;2913;51.120;6.772;2023-11-18T07:02:07;5.30;99.90
5775;DHT22;2913;51.120;6.772;2023-11-18T07:04:38;5.40;99.90
5775;DHT22;2913;51.120;6.772;2023-11-18T07:07:03;5.40;99.90
5775;DHT22;2913;51.120;6.772;2023-11-18T07:09:29;5.40;99.90
5775;DHT22;2913;51.120;6.772;2023-11-18T07:12:01;5.40;99.90
5775;DHT22;2913;51.120;6.772;2023-11-18T07:14:29;5.50;99.90
5775;DHT22;2913;51.120;6.772;2023-11-18T07:16:54;5.60;99.90
5775;DHT22;2913;51.120;6.772;2023-11-18T07:19:20;5.50;99.90
5775;DHT22;2913;51.120;6.772;2023-11-18T07:21:49;5.60;99.90
5775;DHT22;2913;51.120;6.772;2023-11-18T07:24:20;5.60;99.90
5775;DHT22;2913;51.120;6.772;2023-11-18T07:26:45;5.60;99.90
5775;DHT22;2913;51.120;6.772;2023-11-18T07:29:11;5.60;99.90
5775;DHT22;2913;51.120;6.772;2023-11-18T07:31:37;5.60;99.90
5775;DHT22;2913;51.120;6.772;2023-11-18T07:34:04;5.60;99.90
5775;DHT22;2913;51.120;6.772;2023-11-18T07:36:31;5.60;99.90
5775;DHT22;2913;51.120;6.772;2023-11-18T07:38:57;5.60;99.90
5775;DHT22;2913;51.120;6.772;2023-11-18T07:41:30;5.50;99.90
5775;DHT22;2913;51.120;6.772;2023-11-18T07:43:56;5.60;99.90
5775;DHT22;2913;51.120;6.772;2023-11-18T07:46:25;5.60;99.90
5775;DHT22;2913;51.120;6.772;2023-11-18T07:48:53;5.60;99.90
5775;DHT22;2913;51.120;6.772;2023-11-18T07:51:20;5.70;99.90
5775;DHT22;2913;51.120;6.772;2023-11-18T07:53:49;5.80;99.90
5775;DHT22;2913;51.120;6.772;2023-11-18T07:56:15;5.80;99.90
5775;DHT22;2913;51.120;6.772;2023-11-18T07:58:45;5.80;99.90
5775;DHT22;2913;51.120;6.772;2023-11-18T08:01:14;5.90;99.90
5775;DHT22;2913;51.120;6.772;2023-11-18T08:03:42;5.90;99.90
5775;DHT22;2913;51.120;6.772;2023-11-18T08:06:10;5.90;99.90
5775;DHT22;2913;51.120;6.772;2023-11-18T08:08:37;5.90;99.90
5775;DHT22;2913;51.120;6.772;2023-11-18T08:11:10;5.90;99.90
5775;DHT22;2913;51.120;6.772;2023-11-18T08:13:40;6.00;99.90
5775;DHT22;2913;51.120;6.772;2023-11-18T08:16:06;6.00;99.90
5775;DHT22;2913;51.120;6.772;2023-11-18T08:18:35;6.00;99.90
5775;DHT22;2913;51.120;6.772;2023-11-18T08:23:34;6.00;99.90
5775;DHT22;2913;51.120;6.772;2023-11-18T08:26:01;6.10;99.90
5775;DHT22;2913;51.120;6.772;2023-11-18T08:28:29;6.00;99.90
5775;DHT22;2913;51.120;6.772;2023-11-18T08:30:54;6.20;99.90
5775;DHT22;2913;51.120;6.772;2023-11-18T08:33:21;6.20;99.90
5775;DHT22;2913;51.120;6.772;2023-11-18T08:38:15;6.20;99.90
5775;DHT22;2913;51.120;6.772;2023-11-18T08:40:43;6.20;99.90
5775;DHT22;2913;51.120;6.772;2023-11-18T08:43:10;6.30;99.90
5775;DHT22;2913;51.120;6.772;2023-11-18T08:45:36;6.30;99.90
5775;DHT22;2913;51.120;6.772;2023-11-18T08:48:05;6.30;99.90
5775;DHT22;2913;51.120;6.772;2023-11-18T08:50:35;6.40;99.90
5775;DHT22;2913;51.120;6.772;2023-11-18T08:53:01;6.40;99.90
5775;DHT22;2913;51.120;6.772;2023-11-18T08:55:30;6.40;99.90
5775;DHT22;2913;51.120;6.772;2023-11-18T08:58:10;6.50;99.90
5775;DHT22;2913;51.120;6.772;2023-11-18T09:00:49;6.50;99.90
5775;DHT22;2913;51.120;6.772;2023-11-18T09:03:28;6.40;99.90
5775;DHT22;2913;51.120;6.772;2023-11-18T09:05:58;6.50;99.90
5775;DHT22;2913;51.120;6.772;2023-11-18T09:11:04;6.40;99.90
5775;DHT22;2913;51.120;6.772;2023-11-18T09:13:33;6.50;99.90
5775;DHT22;2913;51.120;6.772;2023-11-18T09:16:06;6.60;99.90
5775;DHT22;2913;51.120;6.772;2023-11-18T09:18:38;6.60;99.90
5775;DHT22;2913;51.120;6.772;2023-11-18T09:21:06;6.60;99.90
5775;DHT22;2913;51.120;6.772;2023-11-18T09:23:34;6.60;99.90
5775;DHT22;2913;51.120;6.772;2023-11-18T09:26:00;6.60;99.90
5775;DHT22;2913;51.120;6.772;2023-11-18T09:28:33;6.60;99.90
5775;DHT22;2913;51.120;6.772;2023-11-18T09:31:01;6.70;99.90
5775;DHT22;2913;51.120;6.772;2023-11-18T09:33:31;6.70;99.90
5775;DHT22;2913;51.120;6.772;2023-11-18T09:36:00;6.70;99.90
5775;DHT22;2913;51.120;6.772;2023-11-18T09:38:30;6.80;99.90
5775;DHT22;2913;51.120;6.772;2023-11-18T09:40:57;6.90;99.90
5775;DHT22;2913;51.120;6.772;2023-11-18T09:43:32;6.90;99.90
5775;DHT22;2913;51.120;6.772;2023-11-18T09:46:04;6.90;99.90
5775;DHT22;2913;51.120;6.772;2023-11-18T09:48:42;7.00;99.90
5775;DHT22;2913;51.120;6.772;2023-11-18T09:51:08;7.00;99.90
5775;DHT22;2913;51.120;6.772;2023-11-18T09:53:38;7.00;99.90
5775;DHT22;2913;51.120;6.772;2023-11-18T09:59:05;7.10;99.90
5775;DHT22;2913;51.120;6.772;2023-11-18T10:01:38;7.00;99.90
5775;DHT22;2913;51.120;6.772;2023-11-18T10:04:05;7.00;99.90
5775;DHT22;2913;51.120;6.772;2023-11-18T10:06:36;7.00;99.90
5775;DHT22;2913;51.120;6.772;2023-11-18T10:09:06;7.00;99.90
5775;DHT22;2913;51.120;6.772;2023-11-18T10:11:47;7.10;99.90
5775;DHT22;2913;51.120;6.772;2023-11-18T10:14:16;7.10;99.90
5775;DHT22;2913;51.120;6.772;2023-11-18T10:16:47;7.10;99.90
5775;DHT22;2913;51.120;6.772;2023-11-18T10:19:13;7.20;99.90
5775;DHT22;2913;51.120;6.772;2023-11-18T10:21:40;7.20;99.90
5775;DHT22;2913;51.120;6.772;2023-11-18T10:24:08;7.30;99.90
5775;DHT22;2913;51.120;6.772;2023-11-18T10:27:00;7.30;99.90
5775;DHT22;2913;51.120;6.772;2023-11-18T10:29:26;7.40;99.90
5775;DHT22;2913;51.120;6.772;2023-11-18T10:32:06;7.30;99.90
5775;DHT22;2913;51.120;6.772;2023-11-18T10:34:44;7.40;99.90
5775;DHT22;2913;51.120;6.772;2023-11-18T10:37:10;7.20;99.90
5775;DHT22;2913;51.120;6.772;2023-11-18T10:39:38;7.30;99.90
5775;DHT22;2913;51.120;6.772;2023-11-18T10:42:04;7.50;99.90
5775;DHT22;2913;51.120;6.772;2023-11-18T10:44:33;7.30;99.90
5775;DHT22;2913;51.120;6.772;2023-11-18T10:46:59;7.30;99.90
5775;DHT22;2913;51.120;6.772;2023-11-18T10:49:27;7.40;99.90
5775;DHT22;2913;51.120;6.772;2023-11-18T10:52:02;7.40;99.90
5775;DHT22;2913;51.120;6.772;2023-11-18T10:54:34;7.40;99.90
5775;DHT22;2913;51.120;6.772;2023-11-18T10:57:03;7.50;99.90
5775;DHT22;2913;51.120;6.772;2023-11-18T10:59:35;7.50;99.90
5775;DHT22;2913;51.120;6.772;2023-11-18T11:02:18;7.60;99.90
5775;DHT22;2913;51.120;6.772;2023-11-18T11:04:46;7.60;99.90
5775;DHT22;2913;51.120;6.772;2023-11-18T11:07:17;7.60;99.90
5775;DHT22;2913;51.120;6.772;2023-11-18T11:09:49;7.60;99.90
5775;DHT22;2913;51.120;6.772;2023-11-18T11:12:23;7.70;99.90
5775;DHT22;2913;51.120;6.772;2023-11-18T11:15:04;7.70;99.90
5775;DHT22;2913;51.120;6.772;2023-11-18T11:17:36;7.80;99.90
5775;DHT22;2913;51.120;6.772;2023-11-18T11:20:06;7.80;99.90
5775;DHT22;2913;51.120;6.772;2023-11-18T11:28:23;7.90;99.90
5775;DHT22;2913;51.120;6.772;2023-11-18T11:30:57;7.90;99.90
5775;DHT22;2913;51.120;6.772;2023-11-18T11:33:36;7.80;99.90
5775;DHT22;2913;51.120;6.772;2023-11-18T11:36:12;7.90;99.90
5775;DHT22;2913;51.120;6.772;2023-11-18T11:38:40;8.10;99.90
5775;DHT22;2913;51.120;6.772;2023-11-18T11:41:10;7.90;99.90
5775;DHT22;2913;51.120;6.772;2023-11-18T11:43:48;7.90;99.90
5775;DHT22;2913;51.120;6.772;2023-11-18T11:46:14;7.90;99.90
5775;DHT22;2913;51.120;6.772;2023-11-18T11:48:43;7.90;99.90
5775;DHT22;2913;51.120;6.772;2023-11-18T11:51:24;7.90;99.90
5775;DHT22;2913;51.120;6.772;2023-11-18T11:54:13;7.90;99.90
5775;DHT22;2913;51.120;6.772;2023-11-18T11:56:49;7.90;99.90
5775;DHT22;2913;51.120;6.772;2023-11-18T11:59:18;7.90;99.90
5775;DHT22;2913;51.120;6.772;2023-11-18T12:02:04;7.90;99.90
5775;DHT22;2913;51.120;6.772;2023-11-18T12:04:34;8.00;99.90
5775;DHT22;2913;51.120;6.772;2023-11-18T12:07:05;7.90;99.90
5775;DHT22;2913;51.120;6.772;2023-11-18T12:09:31;8.00;99.90
5775;DHT22;2913;51.120;6.772;2023-11-18T12:12:04;8.10;99.90
5775;DHT22;2913;51.120;6.772;2023-11-18T12:14:31;8.00;99.90
5775;DHT22;2913;51.120;6.772;2023-11-18T12:17:04;8.00;99.90
5775;DHT22;2913;51.120;6.772;2023-11-18T12:19:38;8.10;99.90
5775;DHT22;2913;51.120;6.772;2023-11-18T12:22:23;8.00;99.90
5775;DHT22;2913;51.120;6.772;2023-11-18T12:27:43;8.00;99.90
5775;DHT22;2913;51.120;6.772;2023-11-18T12:46:49;8.10;99.90
5775;DHT22;2913;51.120;6.772;2023-11-18T12:49:16;8.10;99.90
5775;DHT22;2913;51.120;6.772;2023-11-18T12:51:43;8.10;99.90
5775;DHT22;2913;51.120;6.772;2023-11-18T12:54:13;8.10;99.90
5775;DHT22;2913;51.120;6.772;2023-11-18T12:56:41;8.10;99.90
5775;DHT22;2913;51.120;6.772;2023-11-18T12:59:10;8.10;99.90
5775;DHT22;2913;51.120;6.772;2023-11-18T13:04:11;8.20;99.90
5775;DHT22;2913;51.120;6.772;2023-11-18T13:06:42;8.20;99.90
5775;DHT22;2913;51.120;6.772;2023-11-18T13:09:10;8.20;99.90
5775;DHT22;2913;51.120;6.772;2023-11-18T13:11:38;8.20;99.90
5775;DHT22;2913;51.120;6.772;2023-11-18T13:14:08;8.20;99.90
5775;DHT22;2913;51.120;6.772;2023-11-18T13:16:34;8.10;99.90
5775;DHT22;2913;51.120;6.772;2023-11-18T13:19:00;8.00;99.90
5775;DHT22;2913;51.120;6.772;2023-11-18T13:21:25;8.00;99.90
5775;DHT22;2913;51.120;6.772;2023-11-18T13:23:54;8.00;99.90
5775;DHT22;2913;51.120;6.772;2023-11-18T13:26:20;8.00;99.90
5775;DHT22;2913;51.120;6.772;2023-11-18T13:28:49;8.10;99.90
5775;DHT22;2913;51.120;6.772;2023-11-18T13:31:16;8.20;99.90
5775;DHT22;2913;51.120;6.772;2023-11-18T13:33:48;8.20;99.90
5775;DHT22;2913;51.120;6.772;2023-11-18T13:38:41;8.10;99.90
5775;DHT22;2913;51.120;6.772;2023-11-18T13:41:10;8.20;99.90
5775;DHT22;2913;51.120;6.772;2023-11-18T13:43:47;8.20;99.90
5775;DHT22;2913;51.120;6.772;2023-11-18T13:46:21;8.20;99.90
5775;DHT22;2913;51.120;6.772;2023-11-18T13:48:47;8.10;99.90
5775;DHT22;2913;51.120;6.772;2023-11-18T13:51:16;8.20;99.90
5775;DHT22;2913;51.120;6.772;2023-11-18T13:53:45;8.20;99.90
5775;DHT22;2913;51.120;6.772;2023-11-18T13:56:14;8.20;99.90
5775;DHT22;2913;51.120;6.772;2023-11-18T13:58:42;8.20;99.90
5775;DHT22;2913;51.120;6.772;2023-11-18T14:01:10;8.10;99.90
5775;DHT22;2913;51.120;6.772;2023-11-18T14:03:38;8.10;99.90
5775;DHT22;2913;51.120;6.772;2023-11-18T14:06:09;8.00;99.90
5775;DHT22;2913;51.120;6.772;2023-11-18T14:08:38;8.00;99.90
5775;DHT22;2913;51.120;6.772;2023-11-18T14:11:05;8.00;99.90
5775;DHT22;2913;51.120;6.772;2023-11-18T14:13:31;8.00;99.90
5775;DHT22;2913;51.120;6.772;2023-11-18T14:16:02;8.00;99.90
5775;DHT22;2913;51.120;6.772;2023-11-18T14:18:29;8.00;99.90
5775;DHT22;2913;51.120;6.772;2023-11-18T14:20:55;8.00;99.90
5775;DHT22;2913;51.120;6.772;2023-11-18T14:23:21;8.00;99.90
5775;DHT22;2913;51.120;6.772;2023-11-18T14:25:47;7.90;99.90
5775;DHT22;2913;51.120;6.772;2023-11-18T14:28:18;7.90;99.90
5775;DHT22;2913;51.120;6.772;2023-11-18T14:33:10;8.00;99.90
5775;DHT22;2913;51.120;6.772;2023-11-18T14:35:36;8.00;99.90
5775;DHT22;2913;51.120;6.772;2023-11-18T14:38:03;7.90;99.90
5775;DHT22;2913;51.120;6.772;2023-11-18T14:40:28;7.90;99.90
5775;DHT22;2913;51.120;6.772;2023-11-18T14:42:57;7.80;99.90
5775;DHT22;2913;51.120;6.772;2023-11-18T14:45:25;7.90;99.90
5775;DHT22;2913;51.120;6.772;2023-11-18T14:47:51;7.70;99.90
5775;DHT22;2913;51.120;6.772;2023-11-18T14:52:52;7.90;99.90
5775;DHT22;2913;51.120;6.772;2023-11-18T14:57:50;7.90;99.90
5775;DHT22;2913;51.120;6.772;2023-11-18T15:00:16;7.80;99.90
5775;DHT22;2913;51.120;6.772;2023-11-18T15:02:50;7.90;99.90
5775;DHT22;2913;51.120;6.772;2023-11-18T15:05:20;7.70;99.90
5775;DHT22;2913;51.120;6.772;2023-11-18T15:07:54;7.80;99.90
5775;DHT22;2913;51.120;6.772;2023-11-18T15:10:22;7.80;99.90
5775;DHT22;2913;51.120;6.772;2023-11-18T15:12:58;7.70;99.90
5775;DHT22;2913;51.120;6.772;2023-11-18T15:15:28;7.80;99.90
5775;DHT22;2913;51.120;6.772;2023-11-18T15:17:58;7.80;99.90
5775;DHT22;2913;51.120;6.772;2023-11-18T15:20:26;7.80;99.90
5775;DHT22;2913;51.120;6.772;2023-11-18T15:22:52;7.70;99.90
5775;DHT22;2913;51.120;6.772;2023-11-18T15:25:18;7.70;99.90
5775;DHT22;2913;51.120;6.772;2023-11-18T15:27:44;7.80;99.90
5775;DHT22;2913;51.120;6.772;2023-11-18T15:30:13;7.70;99.90
5775;DHT22;2913;51.120;6.772;2023-11-18T15:32:40;7.70;99.90
5775;DHT22;2913;51.120;6.772;2023-11-18T15:35:09;7.70;99.90
5775;DHT22;2913;51.120;6.772;2023-11-18T15:37:44;7.70;99.90
5775;DHT22;2913;51.120;6.772;2023-11-18T15:40:16;7.70;99.90
5775;DHT22;2913;51.120;6.772;2023-11-18T15:42:48;7.70;99.90
5775;DHT22;2913;51.120;6.772;2023-11-18T15:45:16;7.70;99.90
5775;DHT22;2913;51.120;6.772;2023-11-18T15:47:45;7.70;99.90
5775;DHT22;2913;51.120;6.772;2023-11-18T15:50:14;7.70;99.90
5775;DHT22;2913;51.120;6.772;2023-11-18T15:52:50;7.70;99.90
5775;DHT22;2913;51.120;6.772;2023-11-18T15:55:17;7.70;99.90
5775;DHT22;2913;51.120;6.772;2023-11-18T15:57:47;7.70;99.90
5775;DHT22;2913;51.120;6.772;2023-11-18T16:00:13;7.70;99.90
5775;DHT22;2913;51.120;6.772;2023-11-18T16:02:49;7.70;99.90
5775;DHT22;2913;51.120;6.772;2023-11-18T16:05:15;7.70;99.90
5775;DHT22;2913;51.120;6.772;2023-11-18T16:07:43;7.60;99.90
5775;DHT22;2913;51.120;6.772;2023-11-18T16:10:12;7.70;99.90
5775;DHT22;2913;51.120;6.772;2023-11-18T16:12:54;7.70;99.90
5775;DHT22;2913;51.120;6.772;2023-11-18T16:15:25;7.70;99.90
5775;DHT22;2913;51.120;6.772;2023-11-18T16:17:55;7.70;99.90
5775;DHT22;2913;51.120;6.772;2023-11-18T16:20:28;7.70;99.90
5775;DHT22;2913;51.120;6.772;2023-11-18T16:22:57;7.90;99.90
5775;DHT22;2913;51.120;6.772;2023-11-18T16:25:24;7.80;99.90
5775;DHT22;2913;51.120;6.772;2023-11-18T16:27:56;7.70;99.90
5775;DHT22;2913;51.120;6.772;2023-11-18T16:30:26;7.70;99.90
5775;DHT22;2913;51.120;6.772;2023-11-18T16:32:55;7.70;99.90
5775;DHT22;2913;51.120;6.772;2023-11-18T16:35:22;7.80;99.90
5775;DHT22;2913;51.120;6.772;2023-11-18T16:37:48;7.70;99.90
5775;DHT22;2913;51.120;6.772;2023-11-18T16:40:15;7.80;99.90
5775;DHT22;2913;51.120;6.772;2023-11-18T16:42:46;7.80;99.90
5775;DHT22;2913;51.120;6.772;2023-11-18T16:45:14;7.70;99.90
5775;DHT22;2913;51.120;6.772;2023-11-18T16:47:42;7.70;99.90
5775;DHT22;2913;51.120;6.772;2023-11-18T16:50:12;7.80;99.90
5775;DHT22;2913;51.120;6.772;2023-11-18T16:52:38;7.80;99.90
5775;DHT22;2913;51.120;6.772;2023-11-18T16:55:05;7.80;99.90
5775;DHT22;2913;51.120;6.772;2023-11-18T16:57:34;7.80;99.90
5775;DHT22;2913;51.120;6.772;2023-11-18T17:00:01;7.80;99.90
5775;DHT22;2913;51.120;6.772;2023-11-18T17:02:28;7.80;99.90
5775;DHT22;2913;51.120;6.772;2023-11-18T17:04:54;7.80;99.90
5775;DHT22;2913;51.120;6.772;2023-11-18T17:07:20;7.70;99.90
5775;DHT22;2913;51.120;6.772;2023-11-18T17:09:49;7.80;99.90
5775;DHT22;2913;51.120;6.772;2023-11-18T17:12:16;7.80;99.90
5775;DHT22;2913;51.120;6.772;2023-11-18T17:14:41;7.80;99.90
5775;DHT22;2913;51.120;6.772;2023-11-18T17:17:07;8.00;99.90
5775;DHT22;2913;51.120;6.772;2023-11-18T17:19:38;7.80;99.90
5775;DHT22;2913;51.120;6.772;2023-11-18T17:22:08;7.90;99.90